Time;durP1;ratioP1;P1;durP2;ratioP2;P2;SDS_P1;SDS_P2;PMS_P1;PMS_P2;Temp;Humidity;BMP_temperature;BMP_pressure;BME280_temperature;BME280_humidity;BME280_pressure;Samples;Min_cycle;Max_cycle;Signal;HPM_P1;HPM_P2
2022/08/06 00:00:45;;;;;;;2.53;1.17;;;13.80;23.60;;;;;;4982915;28;20230;-62
2022/08/06 00:03:12;;;;;;;1.73;1.40;;;13.90;31.20;;;;;;4978168;28;21003;-61
2022/08/06 00:05:40;;;;;;;3.03;1.10;;;13.90;33.50;;;;;;5007226;28;20600;-62
2022/08/06 00:08:07;;;;;;;1.20;1.10;;;13.80;33.30;;;;;;4983592;28;20202;-62
2022/08/06 00:10:34;;;;;;;1.70;1.20;;;13.80;34.70;;;;;;5001208;28;20206;-62
2022/08/06 00:13:01;;;;;;;1.42;1.30;;;13.80;32.20;;;;;;5005116;28;20194;-61
2022/08/06 00:15:29;;;;;;;3.92;1.60;;;;;;;;;;5000367;28;20212;-62
2022/08/06 00:17:56;;;;;;;2.10;1.30;;;13.70;39.30;;;;;;4982135;28;20233;-62
2022/08/06 00:20:23;;;;;;;2.35;1.10;;;13.70;42.00;;;;;;4987304;28;20610;-62
2022/08/06 00:22:51;;;;;;;1.42;1.15;;;13.70;41.90;;;;;;4986428;28;20222;-61
2022/08/06 00:25:17;;;;;;;2.78;1.20;;;13.70;44.80;;;;;;4994955;28;20229;-62
2022/08/06 00:27:44;;;;;;;3.83;1.30;;;13.90;47.60;;;;;;5004109;28;20680;-62
2022/08/06 00:30:12;;;;;;;1.30;1.20;;;13.70;45.60;;;;;;5007154;28;20206;-61
2022/08/06 00:32:38;;;;;;;2.10;1.27;;;13.80;47.20;;;;;;4971442;28;20216;-62
2022/08/06 00:35:06;;;;;;;1.45;1.35;;;13.70;41.90;;;;;;5002232;28;20664;-61
2022/08/06 00:37:33;;;;;;;4.55;1.40;;;13.70;43.80;;;;;;4987948;28;20698;-61
2022/08/06 00:40:01;;;;;;;1.92;1.15;;;13.70;46.80;;;;;;4993799;28;20236;-62
2022/08/06 00:42:28;;;;;;;2.25;1.20;;;13.60;44.80;;;;;;4996383;28;20208;-62
2022/08/06 00:44:55;;;;;;;1.30;1.20;;;13.60;45.20;;;;;;5017058;28;20194;-62
2022/08/06 00:47:22;;;;;;;3.53;1.17;;;11.20;47.50;;;;;;4986964;28;21069;-62
2022/08/06 00:49:49;;;;;;;1.33;1.23;;;13.60;46.50;;;;;;5010315;28;20225;-61
2022/08/06 00:52:19;;;;;;;1.48;1.10;;;13.60;46.90;;;;;;5005195;28;20206;-62
2022/08/06 00:54:46;;;;;;;2.67;1.20;;;13.50;43.30;;;;;;4998243;28;21180;-62
2022/08/06 00:57:14;;;;;;;3.17;1.40;;;13.40;42.70;;;;;;5002397;28;20202;-61
2022/08/06 00:59:41;;;;;;;1.70;1.20;;;13.40;46.80;;;;;;4994330;28;20234;-62
2022/08/06 01:02:07;;;;;;;1.40;1.30;;;13.40;47.10;;;;;;4987648;28;20199;-62
2022/08/06 01:04:34;;;;;;;5.05;1.30;;;13.40;43.80;;;;;;4982251;28;20230;-62
2022/08/06 01:07:01;;;;;;;1.40;1.30;;;13.40;44.10;;;;;;5000192;28;20210;-61
2022/08/06 01:09:28;;;;;;;1.20;1.10;;;13.40;47.70;;;;;;4970302;28;20210;-62
2022/08/06 01:11:55;;;;;;;5.30;1.50;;;13.30;48.30;;;;;;4984281;28;20226;-62
2022/08/06 01:14:23;;;;;;;5.55;1.50;;;13.30;47.00;;;;;;5009147;28;20209;-62
2022/08/06 01:16:55;;;;;;;1.25;1.13;;;13.40;52.10;;;;;;5013404;28;20213;-62
2022/08/06 01:19:43;;;;;;;1.20;1.10;;;13.40;51.40;;;;;;4968545;28;20697;-62
2022/08/06 01:22:17;;;;;;;4.45;1.60;;;13.30;51.70;;;;;;4988140;28;20233;-61
2022/08/06 01:24:59;;;;;;;2.40;1.45;;;13.10;54.90;;;;;;4994498;28;20225;-61
2022/08/06 01:27:47;;;;;;;3.08;1.33;;;13.30;53.50;;;;;;4968183;28;20240;-62
2022/08/06 01:30:17;;;;;;;3.90;1.40;;;13.30;49.10;;;;;;5001612;28;20223;-61
2022/08/06 01:32:49;;;;;;;5.07;1.70;;;13.50;52.30;;;;;;5005728;28;20769;-61
2022/08/06 01:35:20;;;;;;;1.50;1.40;;;13.40;51.50;;;;;;4975718;28;20218;-62
2022/08/06 01:37:54;;;;;;;1.77;1.38;;;13.30;52.40;;;;;;4999565;28;20226;-61
2022/08/06 01:40:25;;;;;;;1.30;1.20;;;13.50;62.10;;;;;;4977374;28;20230;-61
2022/08/06 01:42:56;;;;;;;2.85;1.40;;;13.50;62.60;;;;;;4993620;28;20226;-61
2022/08/06 01:45:27;;;;;;;2.10;1.45;;;13.80;64.50;;;;;;4993044;28;20226;-61
2022/08/06 01:47:59;;;;;;;3.80;1.30;;;13.70;61.80;;;;;;5000514;28;20222;-61
2022/08/06 01:50:29;;;;;;;1.42;1.33;;;13.70;58.30;;;;;;4974229;28;20225;-62
2022/08/06 01:53:00;;;;;;;2.70;1.40;;;13.90;58.40;;;;;;4972981;28;20727;-62
2022/08/06 01:55:29;;;;;;;2.70;1.30;;;13.60;51.70;;;;;;4991517;28;21117;-61
2022/08/06 01:58:00;;;;;;;3.17;1.30;;;13.70;49.70;;;;;;4995594;28;20952;-61
2022/08/06 02:00:27;;;;;;;2.75;1.48;;;13.70;48.50;;;;;;5008401;28;20234;-60
2022/08/06 02:02:56;;;;;;;4.55;1.60;;;13.60;45.80;;;;;;5000127;28;20229;-61
2022/08/06 02:05:26;;;;;;;6.55;1.67;;;13.60;47.40;;;;;;4996791;28;20716;-62
2022/08/06 02:07:54;;;;;;;1.48;1.38;;;13.50;42.70;;;;;;4992518;28;20208;-62
2022/08/06 02:10:24;;;;;;;1.40;1.30;;;13.30;44.80;;;;;;4993596;28;20225;-61
2022/08/06 02:12:52;;;;;;;1.55;1.45;;;13.30;42.30;;;;;;4998743;28;20344;-62
2022/08/06 02:15:24;;;;;;;2.13;1.50;;;13.40;50.70;;;;;;5015910;28;20194;-61
2022/08/06 02:18:02;;;;;;;3.40;1.45;;;13.30;54.70;;;;;;5015921;28;20234;-61
2022/08/06 02:20:33;;;;;;;1.55;1.45;;;13.30;54.40;;;;;;5014387;28;20226;-61
2022/08/06 02:23:02;;;;;;;6.50;1.83;;;13.40;57.90;;;;;;5018017;28;20694;-61
2022/08/06 02:25:31;;;;;;;2.10;1.70;;;13.30;53.80;;;;;;4982423;28;20260;-61
2022/08/06 02:28:01;;;;;;;1.88;1.40;;;13.40;54.10;;;;;;5005735;28;20209;-61
2022/08/06 02:30:36;;;;;;;1.92;1.50;;;13.40;55.80;;;;;;5016701;28;20217;-61
2022/08/06 02:33:05;;;;;;;3.70;1.50;;;13.40;55.60;;;;;;5016869;28;20204;-61
2022/08/06 02:35:36;;;;;;;1.63;1.45;;;13.30;52.50;;;;;;5017074;28;20212;-62
2022/08/06 02:38:09;;;;;;;1.60;1.50;;;13.20;53.40;;;;;;5013443;28;20203;-61
2022/08/06 02:40:41;;;;;;;1.73;1.63;;;13.20;54.80;;;;;;4994947;28;20229;-61
2022/08/06 02:43:12;;;;;;;1.90;1.70;;;13.00;54.60;;;;;;5004609;28;20673;-61
2022/08/06 02:45:46;;;;;;;1.95;1.30;;;13.00;56.70;;;;;;5005402;28;20198;-61
2022/08/06 02:48:19;;;;;;;1.75;1.40;;;13.00;59.10;;;;;;5009798;28;20206;-61
2022/08/06 02:50:48;;;;;;;1.60;1.50;;;14.30;63.30;;;;;;5011963;28;20201;-61
2022/08/06 02:53:19;;;;;;;1.60;1.50;;;12.90;67.50;;;;;;5020802;28;20303;-61
2022/08/06 02:55:50;;;;;;;7.13;1.95;;;12.90;68.70;;;;;;4992941;28;20289;-61
2022/08/06 02:58:23;;;;;;;1.60;1.50;;;12.80;70.90;;;;;;5003996;28;20206;-61
2022/08/06 03:00:53;;;;;;;2.78;1.58;;;12.80;73.00;;;;;;4995314;28;20225;-61
2022/08/06 03:03:23;;;;;;;3.03;1.50;;;12.80;73.90;;;;;;5017657;28;20285;-61
2022/08/06 03:05:53;;;;;;;2.53;1.88;;;12.70;75.30;;;;;;5006497;28;20205;-61
2022/08/06 03:08:24;;;;;;;2.33;1.77;;;12.70;76.30;;;;;;5013484;28;21458;-62
2022/08/06 03:10:51;;;;;;;1.77;1.67;;;12.90;81.40;;;;;;4991864;28;20672;-62
2022/08/06 03:13:19;;;;;;;3.88;1.67;;;12.60;78.10;;;;;;5018174;28;20216;-61
2022/08/06 03:15:47;;;;;;;2.85;1.73;;;12.60;81.50;;;;;;5003719;28;20206;-61
2022/08/06 03:18:17;;;;;;;1.75;1.65;;;12.70;83.60;;;;;;5015057;28;20230;-61
2022/08/06 03:20:45;;;;;;;3.15;1.65;;;14.10;84.60;;;;;;5011001;28;20691;-61
2022/08/06 03:23:14;;;;;;;4.50;1.90;;;12.60;80.80;;;;;;5007990;28;20210;-61
2022/08/06 03:25:41;;;;;;;3.53;1.80;;;12.70;84.20;;;;;;4992860;28;20199;-61
2022/08/06 03:28:09;;;;;;;2.47;1.70;;;12.60;82.40;;;;;;5017314;28;20651;-62
2022/08/06 03:30:37;;;;;;;2.63;1.75;;;12.70;82.30;;;;;;5006826;28;20220;-61
2022/08/06 03:33:07;;;;;;;3.75;1.90;;;12.70;78.40;;;;;;5012993;28;20198;-61
2022/08/06 03:35:36;;;;;;;3.63;1.90;;;12.70;79.20;;;;;;5015726;28;20205;-62
2022/08/06 03:38:04;;;;;;;2.00;1.85;;;12.80;77.10;;;;;;5012479;28;20213;-61
2022/08/06 03:40:33;;;;;;;3.13;1.90;;;12.50;76.60;;;;;;5002401;28;20217;-61
2022/08/06 03:43:00;;;;;;;1.63;1.52;;;12.60;76.20;;;;;;5002252;28;20206;-61
2022/08/06 03:45:28;;;;;;;3.70;2.05;;;13.00;77.40;;;;;;5017781;28;20201;-61
2022/08/06 03:47:57;;;;;;;2.67;1.90;;;12.70;75.50;;;;;;4999813;28;20202;-61
2022/08/06 03:50:29;;;;;;;2.03;1.65;;;12.60;73.10;;;;;;5013621;28;20199;-61
2022/08/06 03:53:02;;;;;;;2.63;2.10;;;12.60;73.10;;;;;;5005006;28;21510;-61
2022/08/06 03:55:32;;;;;;;2.33;2.00;;;12.50;71.80;;;;;;5010427;28;20220;-62
2022/08/06 03:58:03;;;;;;;5.32;2.00;;;12.50;71.20;;;;;;4996995;28;20304;-61
2022/08/06 04:00:34;;;;;;;2.05;1.85;;;12.50;74.00;;;;;;5015865;28;20229;-61
2022/08/06 04:03:03;;;;;;;2.38;2.10;;;12.50;80.40;;;;;;5005599;28;20255;-61
2022/08/06 04:05:31;;;;;;;3.38;2.03;;;12.50;80.60;;;;;;5013060;28;20198;-61
2022/08/06 04:08:01;;;;;;;6.70;2.13;;;12.60;83.10;;;;;;5014342;28;20570;-61
2022/08/06 04:10:31;;;;;;;7.20;1.98;;;12.50;84.10;;;;;;5004683;28;20203;-61
2022/08/06 04:12:59;;;;;;;3.33;1.92;;;12.50;83.50;;;;;;4996010;28;20201;-61
2022/08/06 04:15:26;;;;;;;2.10;1.90;;;12.50;84.10;;;;;;5017569;28;20200;-61
2022/08/06 04:17:55;;;;;;;4.80;2.03;;;12.50;84.20;;;;;;5004674;28;20229;-61
2022/08/06 04:20:25;;;;;;;4.60;1.95;;;12.50;83.90;;;;;;5020805;28;20237;-62
2022/08/06 04:22:52;;;;;;;2.03;1.92;;;12.50;85.80;;;;;;5007436;28;20283;-62
2022/08/06 04:25:21;;;;;;;2.08;1.90;;;13.80;87.10;;;;;;5010965;28;20201;-62
2022/08/06 04:27:48;;;;;;;4.38;1.70;;;12.20;87.30;;;;;;4995472;28;25227;-62
2022/08/06 04:30:15;;;;;;;2.05;1.88;;;12.50;83.70;;;;;;5018590;28;20974;-61
2022/08/06 04:32:45;;;;;;;1.95;1.85;;;13.30;88.80;;;;;;5010202;28;20584;-62
2022/08/06 04:35:12;;;;;;;4.47;1.95;;;12.50;85.10;;;;;;5017557;28;20197;-62
2022/08/06 04:37:39;;;;;;;2.10;1.92;;;12.60;86.50;;;;;;5018733;28;20202;-61
2022/08/06 04:40:08;;;;;;;4.53;2.45;;;12.60;86.60;;;;;;5018434;28;20543;-61
2022/08/06 04:42:37;;;;;;;2.55;2.00;;;12.80;90.50;;;;;;4997838;28;20690;-61
2022/08/06 04:45:04;;;;;;;2.75;1.65;;;12.60;86.80;;;;;;5007521;28;20206;-61
2022/08/06 04:47:33;;;;;;;3.55;1.80;;;12.60;86.40;;;;;;5004921;28;20210;-61
2022/08/06 04:50:00;;;;;;;5.43;1.70;;;12.60;88.00;;;;;;5011451;28;20280;-61
2022/08/06 04:52:28;;;;;;;5.45;2.88;;;12.70;87.70;;;;;;5019895;28;20212;-61
2022/08/06 04:54:55;;;;;;;4.68;2.20;;;12.80;90.10;;;;;;5016403;28;20202;-61
2022/08/06 04:57:22;;;;;;;3.47;1.90;;;12.80;88.40;;;;;;5009227;28;20202;-62
2022/08/06 04:59:51;;;;;;;2.83;1.80;;;12.90;88.10;;;;;;4994295;28;20206;-61
2022/08/06 05:02:17;;;;;;;2.45;2.00;;;12.90;83.10;;;;;;5009709;28;20226;-61
2022/08/06 05:04:45;;;;;;;6.20;1.83;;;12.90;85.60;;;;;;5006606;28;20218;-61
2022/08/06 05:07:17;;;;;;;3.38;2.00;;;12.90;85.40;;;;;;5017664;28;20198;-61
2022/08/06 05:09:44;;;;;;;3.38;1.92;;;13.00;86.20;;;;;;5013308;28;20678;-62
2022/08/06 05:12:19;;;;;;;5.00;2.00;;;14.50;87.40;;;;;;5018834;28;20201;-62
2022/08/06 05:14:52;;;;;;;4.03;1.90;;;13.00;84.40;;;;;;4997924;28;20201;-61
2022/08/06 05:17:24;;;;;;;2.88;1.90;;;12.90;82.80;;;;;;5018037;28;20753;-62
2022/08/06 05:20:02;;;;;;;2.85;2.03;;;13.10;86.20;;;;;;5007226;28;20216;-61
2022/08/06 05:22:32;;;;;;;3.08;1.90;;;13.10;83.40;;;;;;5016581;28;20915;-61
2022/08/06 05:24:59;;;;;;;3.53;1.70;;;13.10;82.00;;;;;;5016841;28;20403;-62
2022/08/06 05:27:26;;;;;;;2.58;1.75;;;13.20;78.70;;;;;;5015545;28;20653;-62
2022/08/06 05:29:53;;;;;;;3.63;1.83;;;13.20;79.40;;;;;;4997962;28;20198;-61
2022/08/06 05:32:21;;;;;;;1.88;1.75;;;13.20;78.00;;;;;;5019147;28;20852;-61
2022/08/06 05:34:48;;;;;;;3.58;1.60;;;13.30;77.80;;;;;;4995707;28;20431;-62
2022/08/06 05:37:15;;;;;;;3.33;1.77;;;13.30;75.50;;;;;;5018252;28;20202;-61
2022/08/06 05:39:42;;;;;;;1.70;1.60;;;13.40;73.10;;;;;;5014615;28;20203;-62
2022/08/06 05:42:09;;;;;;;4.00;1.85;;;13.40;70.40;;;;;;5017805;28;20775;-61
2022/08/06 05:44:35;;;;;;;5.28;1.80;;;13.50;70.70;;;;;;4997499;28;20214;-61
2022/08/06 05:47:06;;;;;;;2.40;1.55;;;13.50;67.50;;;;;;5014648;28;20190;-62
2022/08/06 05:49:42;;;;;;;1.33;1.23;;;13.60;67.60;;;;;;5005759;28;20206;-61
2022/08/06 05:52:12;;;;;;;1.42;1.33;;;13.70;70.20;;;;;;5015506;28;20205;-61
2022/08/06 05:54:47;;;;;;;1.63;1.50;;;13.70;68.30;;;;;;5016005;28;20583;-61
2022/08/06 05:57:19;;;;;;;1.80;1.48;;;13.80;64.40;;;;;;5014066;28;20198;-62
2022/08/06 05:59:51;;;;;;;2.45;1.65;;;13.80;57.60;;;;;;4990488;28;20244;-62
2022/08/06 06:02:20;;;;;;;2.83;1.45;;;13.90;59.60;;;;;;5017304;28;20237;-62
2022/08/06 06:04:49;;;;;;;2.00;1.50;;;13.90;52.80;;;;;;5006212;28;20198;-62
2022/08/06 06:07:16;;;;;;;4.18;1.45;;;14.00;50.60;;;;;;5010334;28;20206;-61
2022/08/06 06:09:43;;;;;;;2.75;1.40;;;14.10;55.70;;;;;;5013500;28;20206;-62
2022/08/06 06:12:11;;;;;;;1.70;1.40;;;14.10;46.50;;;;;;5017459;28;20202;-61
2022/08/06 06:14:40;;;;;;;1.48;1.38;;;14.00;53.60;;;;;;5004759;28;20323;-62
2022/08/06 06:17:32;;;;;;;2.45;1.50;;;14.30;53.00;;;;;;5011225;28;20233;-62
2022/08/06 06:20:11;;;;;;;5.53;1.70;;;14.30;52.00;;;;;;5003061;28;20203;-62
2022/08/06 06:22:45;;;;;;;1.67;1.42;;;14.70;51.00;;;;;;5003262;28;20232;-62
2022/08/06 06:25:18;;;;;;;2.38;1.48;;;14.40;51.70;;;;;;5014572;28;20202;-62
2022/08/06 06:27:50;;;;;;;1.50;1.40;;;14.50;54.90;;;;;;5010995;28;20198;-62
2022/08/06 06:30:23;;;;;;;3.85;1.48;;;14.50;54.70;;;;;;5016163;28;20198;-62
2022/08/06 06:32:56;;;;;;;1.63;1.40;;;14.60;53.50;;;;;;4992702;28;20778;-61
2022/08/06 06:35:32;;;;;;;1.50;1.40;;;14.60;53.10;;;;;;5006039;28;20212;-62
2022/08/06 06:38:18;;;;;;;3.30;1.45;;;14.70;52.90;;;;;;5006571;28;20229;-62
2022/08/06 06:40:54;;;;;;;1.50;1.40;;;14.70;49.00;;;;;;5013680;28;20205;-62
2022/08/06 06:43:26;;;;;;;3.72;1.80;;;14.90;41.20;;;;;;5017569;28;20194;-62
2022/08/06 06:46:00;;;;;;;1.67;1.30;;;14.90;42.00;;;;;;4989388;28;20213;-62
2022/08/06 06:48:34;;;;;;;1.38;1.27;;;14.90;32.90;;;;;;5011659;28;20197;-61
2022/08/06 06:51:06;;;;;;;2.17;1.48;;;15.00;30.40;;;;;;5004186;28;20368;-62
2022/08/06 06:53:38;;;;;;;1.58;1.25;;;15.10;34.30;;;;;;5005488;28;20241;-61
2022/08/06 06:56:05;;;;;;;2.75;1.20;;;15.10;31.10;;;;;;5010404;28;20202;-61
2022/08/06 06:58:36;;;;;;;2.80;1.40;;;15.10;30.10;;;;;;5014712;28;20194;-61
2022/08/06 07:01:05;;;;;;;2.78;1.23;;;15.20;25.80;;;;;;4995791;28;20216;-62
2022/08/06 07:03:35;;;;;;;2.10;1.13;;;15.30;24.70;;;;;;5016148;28;20780;-62
2022/08/06 07:06:07;;;;;;;4.07;1.35;;;15.40;1.00;;;;;;5015350;28;20730;-62
2022/08/06 07:08:40;;;;;;;4.40;1.05;;;15.40;1.00;;;;;;5002370;28;20202;-61
2022/08/06 07:11:08;;;;;;;1.40;1.17;;;15.80;1.00;;;;;;5004314;28;20204;-61
2022/08/06 07:13:38;;;;;;;3.17;1.10;;;15.40;1.00;;;;;;5013158;28;20205;-62
2022/08/06 07:16:06;;;;;;;2.38;1.08;;;15.50;1.00;;;;;;5012873;28;20225;-62
2022/08/06 07:18:34;;;;;;;2.75;1.20;;;15.60;1.00;;;;;;4997546;28;20230;-62
2022/08/06 07:21:04;;;;;;;6.82;1.23;;;15.70;1.00;;;;;;5013960;28;20206;-62
2022/08/06 07:23:32;;;;;;;6.63;1.40;;;15.70;1.00;;;;;;5004276;28;20848;-61
2022/08/06 07:26:00;;;;;;;1.65;0.93;;;17.00;1.00;;;;;;5004011;28;20220;-61
2022/08/06 07:28:28;;;;;;;0.88;0.80;;;15.80;1.00;;;;;;5016681;28;20554;-61
2022/08/06 07:30:56;;;;;;;0.80;0.80;;;15.90;1.00;;;;;;5010561;28;20667;-62
2022/08/06 07:33:23;;;;;;;1.13;1.02;;;16.00;1.00;;;;;;4999693;28;20576;-61
2022/08/06 07:35:52;;;;;;;2.13;1.00;;;15.80;1.00;;;;;;5010709;28;20260;-62
2022/08/06 07:38:22;;;;;;;1.80;1.33;;;16.00;1.00;;;;;;5002066;28;20691;-62
2022/08/06 07:40:53;;;;;;;0.70;0.70;;;16.00;1.00;;;;;;5003366;28;20217;-62
2022/08/06 07:43:24;;;;;;;1.75;0.85;;;16.10;1.00;;;;;;5015129;28;20707;-62
2022/08/06 07:45:52;;;;;;;3.55;0.90;;;16.10;1.00;;;;;;5009310;28;20213;-62
2022/08/06 07:48:24;;;;;;;1.10;0.60;;;16.30;1.00;;;;;;5005626;28;20206;-62
2022/08/06 07:50:53;;;;;;;1.35;0.77;;;16.30;1.00;;;;;;4998710;28;20228;-62
2022/08/06 07:53:22;;;;;;;0.52;0.50;;;16.50;1.00;;;;;;5006026;28;20209;-62
2022/08/06 07:55:49;;;;;;;1.42;0.70;;;16.50;1.00;;;;;;4996810;28;20210;-62
2022/08/06 07:58:18;;;;;;;0.65;0.60;;;16.50;1.00;;;;;;5011795;28;20312;-62
2022/08/06 08:00:47;;;;;;;1.02;0.55;;;16.60;55.00;;;;;;5013257;28;20222;-62
2022/08/06 08:06:18;;;;;;;0.90;0.70;;;16.80;1.00;;;;;;4995344;28;20240;-62
2022/08/06 08:08:47;;;;;;;0.50;0.50;;;16.80;1.00;;;;;;5005591;28;20209;-61
2022/08/06 08:11:15;;;;;;;1.55;0.60;;;16.80;16.50;;;;;;4995941;28;20209;-62
2022/08/06 08:13:43;;;;;;;0.70;0.70;;;16.80;39.30;;;;;;5014847;28;20213;-62
2022/08/06 08:16:12;;;;;;;3.83;0.68;;;16.60;99.90;;;;;;5011231;28;20205;-62
2022/08/06 08:18:40;;;;;;;0.98;0.63;;;16.60;99.90;;;;;;5015533;28;20237;-62
2022/08/06 08:21:09;;;;;;;1.95;0.60;;;16.60;99.90;;;;;;4991006;28;20212;-61
2022/08/06 08:23:37;;;;;;;1.45;0.73;;;16.60;99.90;;;;;;5014964;28;20591;-62
2022/08/06 08:26:05;;;;;;;1.17;0.70;;;16.70;99.90;;;;;;4993930;28;20776;-62
2022/08/06 08:28:32;;;;;;;5.55;0.70;;;16.70;99.90;;;;;;5012148;28;20204;-62
2022/08/06 08:31:01;;;;;;;0.55;0.40;;;16.80;51.20;;;;;;5009371;28;20202;-62
2022/08/06 08:33:28;;;;;;;1.63;0.65;;;16.90;99.90;;;;;;5015423;28;20202;-61
2022/08/06 08:35:55;;;;;;;3.15;0.70;;;16.90;99.90;;;;;;4989963;28;20210;-62
2022/08/06 08:38:22;;;;;;;2.45;0.65;;;16.90;1.00;;;;;;5014920;28;20196;-62
2022/08/06 08:40:52;;;;;;;1.20;0.57;;;16.90;1.00;;;;;;5005860;28;20210;-61
2022/08/06 08:43:25;;;;;;;1.27;0.60;;;16.90;1.00;;;;;;5003490;28;21105;-61
2022/08/06 08:45:55;;;;;;;1.10;0.60;;;16.80;1.00;;;;;;5011592;28;20203;-61
2022/08/06 08:48:28;;;;;;;1.80;0.60;;;16.80;99.90;;;;;;5007244;28;20264;-62
2022/08/06 08:50:56;;;;;;;0.70;0.50;;;16.90;1.00;;;;;;4991019;28;20221;-62
2022/08/06 08:53:29;;;;;;;1.13;0.50;;;16.90;1.00;;;;;;5006344;28;20574;-61
2022/08/06 08:55:57;;;;;;;2.65;0.68;;;17.00;1.00;;;;;;5001914;28;20199;-61
2022/08/06 08:58:27;;;;;;;1.40;0.57;;;17.20;1.00;;;;;;5003510;28;20265;-61
2022/08/06 09:00:54;;;;;;;1.02;0.60;;;17.10;1.00;;;;;;5016386;28;20230;-61
2022/08/06 09:03:22;;;;;;;0.32;0.32;;;17.20;1.00;;;;;;5016492;28;20217;-62
2022/08/06 09:05:49;;;;;;;1.63;0.68;;;17.20;1.00;;;;;;5013055;28;20202;-62
2022/08/06 09:08:16;;;;;;;1.92;0.68;;;17.20;1.00;;;;;;5002448;28;20315;-62
2022/08/06 09:10:44;;;;;;;0.82;0.50;;;17.20;1.00;;;;;;5006729;28;20198;-61
2022/08/06 09:13:11;;;;;;;0.47;0.40;;;17.30;1.00;;;;;;5006315;28;20214;-61
2022/08/06 09:15:39;;;;;;;0.98;0.57;;;17.40;1.00;;;;;;5017541;28;20560;-61
2022/08/06 09:18:06;;;;;;;1.10;0.60;;;17.30;1.00;;;;;;5009084;28;20236;-61
2022/08/06 09:20:35;;;;;;;0.63;0.57;;;17.40;1.00;;;;;;5017551;28;20901;-62
2022/08/06 09:23:02;;;;;;;1.13;0.60;;;17.40;1.00;;;;;;4997481;28;20221;-61
2022/08/06 09:25:40;;;;;;;1.23;0.60;;;17.60;1.00;;;;;;5010227;28;20460;-61
2022/08/06 09:28:11;;;;;;;1.83;0.73;;;17.80;1.00;;;;;;5006977;28;20213;-62
2022/08/06 09:30:40;;;;;;;0.45;0.45;;;17.70;99.90;;;;;;5015713;28;21020;-62
2022/08/06 09:33:12;;;;;;;2.78;0.70;;;17.70;99.90;;;;;;5017379;28;20198;-62
2022/08/06 09:35:40;;;;;;;3.08;0.45;;;17.60;99.90;;;;;;5015942;28;20195;-62
2022/08/06 09:38:09;;;;;;;1.30;0.60;;;17.70;99.90;;;;;;4998384;28;20199;-61
2022/08/06 09:40:36;;;;;;;0.20;0.20;;;17.70;99.90;;;;;;5004551;28;20287;-62
2022/08/06 09:43:03;;;;;;;0.45;0.38;;;17.80;23.10;;;;;;5016290;28;20352;-61
2022/08/06 09:45:30;;;;;;;1.88;0.65;;;17.90;1.00;;;;;;5007290;28;20465;-61
2022/08/06 09:48:04;;;;;;;1.95;0.50;;;18.20;8.00;;;;;;5012710;28;20668;-61
2022/08/06 09:50:39;;;;;;;1.00;0.60;;;18.10;1.00;;;;;;5010658;28;20200;-61
2022/08/06 09:53:07;;;;;;;2.47;0.52;;;;;;;;;;4998850;28;20210;-61
2022/08/06 09:55:34;;;;;;;1.48;0.63;;;18.30;1.00;;;;;;5007586;28;20209;-62
2022/08/06 09:58:02;;;;;;;3.13;0.70;;;18.50;14.60;;;;;;5016605;28;20202;-62
2022/08/06 10:00:31;;;;;;;0.63;0.50;;;18.80;8.60;;;;;;5006291;28;20206;-62
2022/08/06 10:02:59;;;;;;;0.75;0.52;;;18.40;5.10;;;;;;5014046;28;20226;-62
2022/08/06 10:05:28;;;;;;;0.98;0.60;;;18.50;11.90;;;;;;5012304;28;20199;-61
2022/08/06 10:08:07;;;;;;;0.50;0.50;;;18.60;1.00;;;;;;5015077;28;20213;-61
2022/08/06 10:10:42;;;;;;;0.43;0.43;;;18.80;1.00;;;;;;4993227;28;20312;-62
2022/08/06 10:13:15;;;;;;;2.80;0.90;;;18.80;1.00;;;;;;5013661;28;20194;-61
2022/08/06 10:15:44;;;;;;;0.43;0.43;;;18.90;1.00;;;;;;5008646;28;20209;-62
2022/08/06 10:18:11;;;;;;;0.95;0.60;;;18.90;1.00;;;;;;5016593;28;20640;-61
2022/08/06 10:21:01;;;;;;;0.60;0.60;;;18.70;1.00;;;;;;5015297;28;20987;-61
2022/08/06 10:23:31;;;;;;;2.63;0.70;;;18.70;1.00;;;;;;5013357;28;20687;-61
2022/08/06 10:25:58;;;;;;;0.75;0.50;;;18.80;1.00;;;;;;4996650;28;20205;-61
2022/08/06 10:28:27;;;;;;;1.83;0.68;;;18.70;1.00;;;;;;4996096;28;20217;-61
2022/08/06 10:30:55;;;;;;;0.95;0.50;;;18.90;1.00;;;;;;5016434;28;20202;-61
2022/08/06 10:33:24;;;;;;;0.40;0.40;;;18.90;1.00;;;;;;5017929;28;20324;-61
2022/08/06 10:35:55;;;;;;;0.50;0.50;;;18.90;1.00;;;;;;5017115;28;20293;-61
2022/08/06 10:38:26;;;;;;;1.27;0.65;;;19.00;1.00;;;;;;5011919;28;20217;-61
2022/08/06 10:40:54;;;;;;;0.50;0.50;;;19.20;1.00;;;;;;4993803;28;20206;-61
2022/08/06 10:43:22;;;;;;;0.60;0.60;;;19.30;1.00;;;;;;5003476;28;20233;-61
2022/08/06 10:45:49;;;;;;;0.57;0.57;;;19.20;1.00;;;;;;5001768;28;20298;-62
2022/08/06 10:48:17;;;;;;;0.68;0.60;;;19.00;1.00;;;;;;5009298;28;20197;-61
2022/08/06 10:50:45;;;;;;;0.60;0.60;;;18.90;1.00;;;;;;5014632;28;20615;-61
2022/08/06 10:53:12;;;;;;;0.60;0.60;;;18.70;1.00;;;;;;5001478;28;20210;-62
2022/08/06 10:55:41;;;;;;;2.45;0.65;;;18.60;99.90;;;;;;4992677;28;20229;-61
2022/08/06 10:58:08;;;;;;;1.25;0.75;;;18.70;64.80;;;;;;5004292;28;20209;-62
2022/08/06 11:00:35;;;;;;;2.88;0.73;;;18.70;1.00;;;;;;5001446;28;20200;-62
2022/08/06 11:03:14;;;;;;;0.85;0.50;;;18.80;1.00;;;;;;5009080;28;20237;-62
2022/08/06 11:05:42;;;;;;;0.52;0.50;;;19.30;99.90;;;;;;5011948;28;20201;-61
2022/08/06 11:08:23;;;;;;;1.70;0.90;;;18.80;99.90;;;;;;5002992;28;20213;-62
2022/08/06 11:11:08;;;;;;;1.50;1.13;;;19.00;99.90;;;;;;4989182;28;21056;-61
2022/08/06 11:13:46;;;;;;;0.50;0.50;;;19.00;99.90;;;;;;5002402;28;21046;-61
2022/08/06 11:16:23;;;;;;;0.73;0.50;;;19.00;1.00;;;;;;5003038;28;20217;-62
2022/08/06 11:18:59;;;;;;;1.00;0.60;;;18.90;1.00;;;;;;5014507;28;20236;-61
2022/08/06 11:21:38;;;;;;;0.85;0.50;;;18.80;1.00;;;;;;5012056;28;20837;-61
2022/08/06 11:24:06;;;;;;;0.45;0.45;;;18.80;1.00;;;;;;5005894;28;20241;-61
2022/08/06 11:26:36;;;;;;;2.53;1.00;;;18.10;1.00;;;;;;4993409;28;20345;-61
2022/08/06 11:29:05;;;;;;;1.48;0.70;;;18.80;1.00;;;;;;5006445;28;20211;-61
2022/08/06 11:31:41;;;;;;;0.75;0.70;;;18.80;1.00;;;;;;5006088;28;20230;-61
2022/08/06 11:34:13;;;;;;;0.82;0.50;;;18.70;1.00;;;;;;5007427;28;20267;-62
2022/08/06 11:36:52;;;;;;;1.40;0.85;;;18.80;1.00;;;;;;5014614;28;20224;-61
2022/08/06 11:39:21;;;;;;;1.77;0.82;;;18.70;1.00;;;;;;5015437;28;20201;-61
2022/08/06 11:41:55;;;;;;;1.65;0.98;;;18.80;1.00;;;;;;4992966;28;20210;-61
2022/08/06 11:44:23;;;;;;;0.85;0.80;;;19.00;1.00;;;;;;5010561;28;20740;-61
2022/08/06 11:47:05;;;;;;;0.75;0.75;;;19.20;1.00;;;;;;4997146;28;20948;-61
2022/08/06 11:49:40;;;;;;;1.13;0.90;;;19.20;1.00;;;;;;5014389;28;20202;-61
2022/08/06 11:52:07;;;;;;;2.42;0.93;;;19.40;1.00;;;;;;5004136;28;20216;-62
2022/08/06 11:54:36;;;;;;;10.57;1.10;;;19.30;1.00;;;;;;5015195;28;20683;-61
2022/08/06 11:57:23;;;;;;;1.00;0.90;;;19.10;1.00;;;;;;4992184;28;20244;-62
2022/08/06 12:00:13;;;;;;;0.50;0.50;;;19.10;1.00;;;;;;5012743;28;21535;-61
2022/08/06 12:02:51;;;;;;;1.60;1.00;;;19.00;1.00;;;;;;5001533;28;20206;-61
2022/08/06 12:05:48;;;;;;;4.55;1.13;;;19.00;1.00;;;;;;5016478;28;20198;-61
2022/08/06 12:08:26;;;;;;;2.40;1.13;;;19.00;1.00;;;;;;5004111;28;20747;-61
2022/08/06 12:11:34;;;;;;;1.00;0.90;;;19.00;99.90;;;;;;5011319;28;20251;-62
2022/08/06 12:14:03;;;;;;;1.85;1.20;;;18.90;50.80;;;;;;4985131;28;20206;-62
2022/08/06 12:16:39;;;;;;;2.80;1.17;;;18.80;99.90;;;;;;5006486;28;20236;-62
2022/08/06 12:19:12;;;;;;;1.55;1.08;;;18.90;99.90;;;;;;5011695;28;20202;-61
2022/08/06 12:21:42;;;;;;;5.45;1.30;;;18.90;99.90;;;;;;5003935;28;20199;-61
2022/08/06 12:24:09;;;;;;;1.77;0.85;;;19.00;99.90;;;;;;5014037;28;20222;-61
2022/08/06 12:26:36;;;;;;;1.83;1.20;;;19.10;49.10;;;;;;5014013;28;20205;-61
2022/08/06 12:29:09;;;;;;;1.65;1.13;;;19.30;1.00;;;;;;4992251;28;20203;-62
2022/08/06 12:31:39;;;;;;;2.45;1.10;;;19.50;1.00;;;;;;5007615;28;20679;-61
2022/08/06 12:34:06;;;;;;;3.45;2.35;;;19.60;5.70;;;;;;5016254;28;20221;-61
2022/08/06 12:36:36;;;;;;;5.20;2.53;;;19.60;1.00;;;;;;5016974;28;20209;-61
2022/08/06 12:39:06;;;;;;;3.63;2.70;;;19.30;1.00;;;;;;5008092;28;20202;-61
2022/08/06 12:41:35;;;;;;;5.10;2.75;;;17.50;99.90;;;;;;5018247;28;20299;-61
2022/08/06 12:44:01;;;;;;;5.50;2.47;;;19.00;99.90;;;;;;5017241;28;20252;-62
2022/08/06 12:46:29;;;;;;;4.25;2.50;;;18.80;99.90;;;;;;4991600;28;20206;-61
2022/08/06 12:48:56;;;;;;;6.03;2.08;;;18.80;99.90;;;;;;5005828;28;20224;-62
2022/08/06 12:51:23;;;;;;;5.55;2.28;;;18.90;99.90;;;;;;5018486;28;20213;-62
2022/08/06 12:53:52;;;;;;;5.03;2.85;;;19.00;99.90;;;;;;4995292;28;20217;-61
2022/08/06 12:56:21;;;;;;;2.45;1.90;;;19.50;1.00;;;;;;5018247;28;20202;-62
2022/08/06 12:58:48;;;;;;;5.72;2.58;;;19.40;4.70;;;;;;5015851;28;20206;-61
2022/08/06 13:01:17;;;;;;;4.95;2.22;;;19.50;1.00;;;;;;4996974;28;20209;-61
2022/08/06 13:03:48;;;;;;;6.82;2.63;;;19.60;1.00;;;;;;5004777;28;20233;-62
2022/08/06 13:06:17;;;;;;;4.63;2.17;;;19.70;1.00;;;;;;5016021;28;20198;-61
2022/08/06 13:08:47;;;;;;;4.20;2.72;;;19.80;1.00;;;;;;5009445;28;20573;-62